Time;durP1;ratioP1;P1;durP2;ratioP2;P2;SDS_P1;SDS_P2;PMS_P1;PMS_P2;Temp;Humidity;BMP_temperature;BMP_pressure;BME280_temperature;BME280_humidity;BME280_pressure;Samples;Min_cycle;Max_cycle;Signal;HPM_P1;HPM_P2
2022/11/15 00:02:43;;;;;;;32.73;17.02;;;7.10;93.80;;;;;;1875016;75;21123;-49
2022/11/15 00:05:30;;;;;;;33.50;17.52;;;7.10;93.60;;;;;;1872921;77;21179;-47
2022/11/15 00:08:18;;;;;;;33.05;19.82;;;7.10;93.80;;;;;;1872905;77;21216;-46
2022/11/15 00:11:05;;;;;;;35.08;18.42;;;7.10;94.00;;;;;;1872918;76;21244;-48
2022/11/15 00:13:54;;;;;;;29.92;18.52;;;7.00;94.00;;;;;;1872937;76;21268;-46
2022/11/15 00:16:41;;;;;;;30.70;18.98;;;7.10;93.90;;;;;;1872972;76;21299;-49
2022/11/15 00:19:28;;;;;;;36.65;19.95;;;7.00;93.50;;;;;;1872890;77;21154;-48
2022/11/15 00:22:15;;;;;;;36.83;20.70;;;6.90;93.90;;;;;;1872825;77;21658;-47
2022/11/15 00:25:03;;;;;;;38.65;22.62;;;6.80;94.00;;;;;;1872901;76;21368;-49
2022/11/15 00:27:51;;;;;;;29.05;20.43;;;6.90;94.30;;;;;;1872811;76;21314;-47
2022/11/15 00:30:38;;;;;;;34.27;19.45;;;6.90;94.30;;;;;;1872802;75;21250;-50
2022/11/15 00:33:26;;;;;;;36.68;20.27;;;6.90;94.30;;;;;;1872952;77;21050;-47
2022/11/15 00:36:13;;;;;;;33.83;18.55;;;7.00;94.30;;;;;;1872791;77;21167;-48
2022/11/15 00:39:00;;;;;;;29.80;18.42;;;7.00;94.30;;;;;;1872758;77;21299;-47
2022/11/15 00:41:47;;;;;;;30.92;17.57;;;7.00;94.10;;;;;;1872880;76;21110;-49
2022/11/15 00:44:34;;;;;;;28.87;16.80;;;6.90;94.10;;;;;;1872799;77;21243;-49
2022/11/15 00:47:21;;;;;;;30.30;19.80;;;6.90;94.00;;;;;;1872835;77;21300;-48
2022/11/15 00:50:09;;;;;;;29.82;18.87;;;6.80;94.20;;;;;;1872817;76;21108;-47
2022/11/15 00:52:56;;;;;;;32.30;18.98;;;6.80;94.20;;;;;;1872804;77;21345;-48
2022/11/15 00:55:42;;;;;;;33.10;19.15;;;6.80;94.30;;;;;;1872906;76;21176;-49
2022/11/15 00:58:29;;;;;;;32.67;19.57;;;6.90;94.30;;;;;;1872810;75;21289;-49
2022/11/15 01:01:16;;;;;;;33.83;18.82;;;6.90;94.30;;;;;;1874301;76;21277;-47
2022/11/15 01:04:04;;;;;;;35.23;19.48;;;6.90;94.30;;;;;;1891762;76;21698;-47
2022/11/15 01:06:51;;;;;;;34.43;19.23;;;6.90;94.30;;;;;;1891737;76;21265;-48
2022/11/15 01:09:38;;;;;;;32.93;19.90;;;6.90;94.30;;;;;;1891717;76;21233;-48
2022/11/15 01:12:25;;;;;;;34.23;21.02;;;6.90;94.30;;;;;;1891600;76;21339;-47
2022/11/15 01:15:12;;;;;;;29.85;18.70;;;6.90;94.20;;;;;;1891616;76;21571;-47
2022/11/15 01:17:59;;;;;;;29.52;19.17;;;6.90;94.40;;;;;;1891630;76;21156;-47
2022/11/15 01:20:46;;;;;;;32.98;18.05;;;6.90;94.10;;;;;;1891596;76;21108;-48
2022/11/15 01:23:33;;;;;;;38.10;20.62;;;6.80;94.00;;;;;;1891662;76;21130;-47
2022/11/15 01:26:20;;;;;;;35.33;19.20;;;6.70;94.10;;;;;;1891631;76;21133;-48
2022/11/15 01:29:07;;;;;;;33.33;17.90;;;6.60;94.10;;;;;;1891832;76;21769;-47
2022/11/15 01:31:54;;;;;;;32.93;19.07;;;6.50;94.20;;;;;;1891617;76;21788;-47
2022/11/15 01:34:41;;;;;;;37.45;21.02;;;6.50;94.20;;;;;;1891577;76;21288;-48
2022/11/15 01:37:29;;;;;;;34.27;20.43;;;6.50;94.50;;;;;;1891553;76;21222;-47
2022/11/15 01:40:15;;;;;;;34.95;18.45;;;6.50;94.40;;;;;;1891529;76;21399;-47
2022/11/15 01:43:23;;;;;;;38.08;20.35;;;6.50;94.20;;;;;;1891549;76;21223;-48
2022/11/15 01:46:31;;;;;;;35.75;18.82;;;6.50;94.30;;;;;;1891691;76;21195;-47
2022/11/15 01:49:21;;;;;;;33.10;18.75;;;6.50;94.40;;;;;;1891534;76;21449;-48
2022/11/15 01:52:11;;;;;;;29.90;17.52;;;6.50;94.40;;;;;;1891649;76;21577;-47
2022/11/15 01:55:07;;;;;;;25.88;17.55;;;6.50;94.20;;;;;;1891603;76;21094;-48
2022/11/15 01:57:57;;;;;;;27.55;17.62;;;6.50;94.40;;;;;;1891649;76;21696;-47
2022/11/15 02:00:44;;;;;;;26.65;17.05;;;6.50;94.40;;;;;;1891708;76;21277;-50
2022/11/15 02:03:45;;;;;;;27.50;15.63;;;6.50;94.30;;;;;;1876571;75;21466;-50
2022/11/15 02:06:33;;;;;;;27.77;15.30;;;6.40;94.20;;;;;;1872915;77;21170;-47
2022/11/15 02:09:20;;;;;;;30.50;16.23;;;6.40;94.20;;;;;;1872836;77;21346;-48
2022/11/15 02:12:10;;;;;;;30.62;15.88;;;6.40;94.30;;;;;;1872973;77;21739;-49
2022/11/15 02:14:57;;;;;;;23.52;15.95;;;6.40;94.30;;;;;;1873051;77;21166;-47
2022/11/15 02:17:53;;;;;;;26.62;16.27;;;6.30;94.20;;;;;;1872954;77;21225;-48
2022/11/15 02:21:01;;;;;;;30.57;15.50;;;6.20;94.20;;;;;;1873149;77;21260;-47
2022/11/15 02:23:50;;;;;;;27.87;15.18;;;6.20;94.30;;;;;;1873147;76;21722;-47
2022/11/15 02:26:56;;;;;;;26.37;15.35;;;6.20;94.30;;;;;;1873088;77;21199;-47
2022/11/15 02:30:03;;;;;;;28.05;16.80;;;6.20;94.40;;;;;;1873039;75;21288;-48
2022/11/15 02:32:56;;;;;;;31.10;16.97;;;6.30;94.40;;;;;;1872979;77;21246;-47
2022/11/15 02:35:46;;;;;;;32.78;19.52;;;6.30;94.50;;;;;;1872984;77;21163;-48
2022/11/15 02:38:41;;;;;;;30.82;17.32;;;6.30;94.40;;;;;;1873027;77;21622;-47
2022/11/15 02:41:34;;;;;;;33.40;17.65;;;6.30;94.30;;;;;;1872781;77;21219;-48
2022/11/15 02:44:42;;;;;;;27.67;17.90;;;6.20;94.30;;;;;;1872845;77;21709;-47
2022/11/15 02:47:32;;;;;;;23.55;14.93;;;6.20;94.30;;;;;;1872972;77;21289;-48
2022/11/15 02:50:22;;;;;;;26.70;15.83;;;6.20;94.40;;;;;;1872942;77;21311;-47
2022/11/15 02:53:09;;;;;;;31.45;15.58;;;6.20;94.30;;;;;;1873024;75;21147;-46
2022/11/15 02:55:57;;;;;;;35.13;16.85;;;6.20;94.30;;;;;;1872839;77;21215;-47
2022/11/15 02:58:50;;;;;;;29.98;18.30;;;6.20;94.40;;;;;;1872806;76;21804;-49
2022/11/15 03:01:52;;;;;;;36.58;18.80;;;6.20;94.40;;;;;;1873106;77;21202;-48
2022/11/15 03:04:53;;;;;;;33.00;19.20;;;6.10;94.20;;;;;;1872804;77;21362;-48
2022/11/15 03:07:55;;;;;;;36.13;18.37;;;6.00;94.40;;;;;;1872883;77;21230;-47
2022/11/15 03:11:06;;;;;;;26.42;15.65;;;6.10;94.40;;;;;;1872850;77;21835;-47
2022/11/15 03:14:01;;;;;;;33.48;18.27;;;6.00;94.20;;;;;;1872936;77;21280;-47
2022/11/15 03:17:09;;;;;;;57.85;28.07;;;6.00;94.30;;;;;;1872939;76;21211;-48
2022/11/15 03:22:29;;;;;;;78.83;38.53;;;5.80;94.10;;;;;;1973838;72;25970;-48
2022/11/15 03:25:19;;;;;;;58.95;25.72;;;5.80;94.30;;;;;;1949145;73;21773;-49
2022/11/15 03:28:09;;;;;;;48.60;24.20;;;5.80;94.30;;;;;;1949427;73;21159;-49
2022/11/15 03:30:57;;;;;;;62.38;28.45;;;5.70;94.40;;;;;;1949187;73;21327;-50
2022/11/15 03:33:44;;;;;;;72.00;36.20;;;5.70;94.30;;;;;;1949174;73;21707;-48
2022/11/15 03:36:33;;;;;;;56.68;28.47;;;5.70;94.30;;;;;;1949181;73;21653;-48
2022/11/15 03:39:22;;;;;;;40.48;21.82;;;5.60;94.50;;;;;;1949183;73;21393;-48
2022/11/15 03:42:17;;;;;;;46.85;23.77;;;5.70;94.60;;;;;;1949175;73;21221;-48
2022/11/15 03:45:05;;;;;;;;;;;5.70;94.60;;;;;;1952155;73;21898;-47
2022/11/15 03:47:54;;;;;;;38.83;20.50;;;5.70;94.40;;;;;;1949452;73;20794;-49
2022/11/15 03:50:43;;;;;;;32.23;18.98;;;5.70;94.50;;;;;;1949296;73;21276;-48
2022/11/15 03:53:31;;;;;;;43.40;21.10;;;5.70;94.50;;;;;;1949211;73;21414;-49
2022/11/15 03:56:18;;;;;;;34.73;16.27;;;5.70;94.50;;;;;;1949282;73;21197;-48
2022/11/15 03:59:06;;;;;;;25.45;15.90;;;5.70;94.50;;;;;;1949092;73;21333;-48
2022/11/15 04:01:53;;;;;;;26.02;14.60;;;5.70;94.40;;;;;;1949043;73;21353;-48
2022/11/15 04:04:40;;;;;;;26.33;14.85;;;5.70;94.30;;;;;;1949099;73;21086;-48
2022/11/15 04:07:27;;;;;;;27.67;16.05;;;5.70;94.40;;;;;;1949077;73;21338;-51
2022/11/15 04:10:14;;;;;;;28.60;14.90;;;5.60;94.50;;;;;;1949068;73;21353;-49
2022/11/15 04:13:03;;;;;;;26.00;14.45;;;5.60;94.60;;;;;;1949095;73;21215;-49
2022/11/15 04:15:50;;;;;;;27.70;15.10;;;5.70;94.60;;;;;;1949117;73;21156;-49
2022/11/15 04:18:37;;;;;;;31.93;17.32;;;5.70;94.50;;;;;;1949038;73;21398;-48
2022/11/15 04:24:30;;;;;;;57.48;26.87;;;5.60;94.40;;;;;;1949662;73;21276;-50
2022/11/15 04:27:17;;;;;;;42.70;21.45;;;5.60;94.50;;;;;;1949371;73;21320;-49
2022/11/15 04:30:05;;;;;;;38.08;21.17;;;5.50;94.50;;;;;;1949353;73;21272;-48
2022/11/15 04:32:52;;;;;;;33.42;18.32;;;5.50;94.50;;;;;;1949047;73;21331;-49
2022/11/15 04:35:40;;;;;;;34.43;17.52;;;5.50;94.50;;;;;;1948728;73;21158;-50
2022/11/15 04:38:26;;;;;;;31.20;16.60;;;5.50;94.60;;;;;;1948703;74;21293;-49
2022/11/15 04:41:13;;;;;;;40.05;20.62;;;5.60;94.70;;;;;;1948720;74;21233;-50
2022/11/15 04:44:00;;;;;;;30.62;15.60;;;5.60;94.50;;;;;;1948710;73;21269;-49
2022/11/15 04:46:47;;;;;;;30.52;16.20;;;5.60;94.60;;;;;;1948731;73;21157;-49
2022/11/15 04:49:34;;;;;;;32.60;18.35;;;5.60;94.50;;;;;;1948678;74;21229;-49
2022/11/15 04:52:22;;;;;;;36.45;18.75;;;5.60;94.70;;;;;;1948691;74;21779;-48
2022/11/15 04:55:10;;;;;;;32.78;19.12;;;5.60;94.50;;;;;;1948652;74;21500;-49
2022/11/15 04:58:01;;;;;;;38.00;19.80;;;5.60;94.60;;;;;;1948725;74;21671;-50
2022/11/15 05:00:48;;;;;;;41.92;19.60;;;5.60;94.60;;;;;;1948771;73;21289;-49
2022/11/15 05:06:40;;;;;;;44.60;22.17;;;5.70;94.70;;;;;;1948922;74;21599;-48
2022/11/15 05:09:27;;;;;;;46.15;20.85;;;5.70;94.70;;;;;;1948865;73;21647;-49
2022/11/15 05:12:14;;;;;;;39.88;17.85;;;5.80;94.70;;;;;;1948931;74;21171;-49
2022/11/15 05:15:02;;;;;;;35.98;20.70;;;5.80;94.60;;;;;;1948858;74;21338;-48
2022/11/15 05:17:49;;;;;;;30.62;18.77;;;5.90;94.60;;;;;;1948879;74;21245;-52
2022/11/15 05:20:36;;;;;;;30.00;17.65;;;5.90;94.60;;;;;;1948872;74;21143;-51
2022/11/15 05:23:23;;;;;;;33.18;18.75;;;6.00;94.60;;;;;;1943283;73;21601;-50
2022/11/15 05:26:11;;;;;;;30.57;17.52;;;6.00;94.60;;;;;;1942935;73;21336;-49
2022/11/15 05:28:59;;;;;;;31.20;16.82;;;6.10;94.70;;;;;;1943024;74;21192;-51
2022/11/15 05:31:47;;;;;;;29.42;16.87;;;6.10;94.70;;;;;;1942958;74;21311;-49
2022/11/15 05:34:34;;;;;;;36.60;18.80;;;6.20;94.60;;;;;;1942892;74;21789;-49
2022/11/15 05:37:21;;;;;;;30.32;18.00;;;6.20;94.70;;;;;;1943059;74;21242;-49
2022/11/15 05:40:09;;;;;;;44.80;18.05;;;6.30;94.60;;;;;;1943000;74;21216;-48
2022/11/15 05:42:56;;;;;;;35.70;20.92;;;6.30;94.50;;;;;;1943010;74;21758;-50
2022/11/15 05:45:43;;;;;;;40.25;22.90;;;6.30;94.60;;;;;;1943101;74;21158;-49
2022/11/15 05:48:30;;;;;;;41.42;21.60;;;6.30;94.40;;;;;;1943337;74;21026;-49
2022/11/15 05:51:19;;;;;;;40.17;20.85;;;6.30;94.40;;;;;;1943086;74;21083;-49
2022/11/15 05:54:06;;;;;;;51.28;25.17;;;6.20;94.40;;;;;;1942982;74;21175;-49
2022/11/15 05:56:55;;;;;;;70.67;32.38;;;6.30;94.60;;;;;;1943319;74;21170;-49
2022/11/15 05:59:43;;;;;;;40.30;21.20;;;6.30;94.70;;;;;;1943119;74;21152;-49
2022/11/15 06:02:30;;;;;;;23.47;14.53;;;6.40;94.70;;;;;;1943053;74;21043;-49
2022/11/15 06:05:17;;;;;;;23.85;13.50;;;6.40;94.30;;;;;;1943105;74;21097;-49
2022/11/15 06:08:04;;;;;;;25.70;13.43;;;6.30;92.60;;;;;;1942977;74;21087;-48
2022/11/15 06:10:51;;;;;;;26.62;14.15;;;6.00;92.20;;;;;;1943158;74;21533;-48
2022/11/15 06:13:38;;;;;;;27.13;15.35;;;5.60;92.80;;;;;;1943077;74;21553;-48
2022/11/15 06:16:25;;;;;;;29.85;17.82;;;5.40;93.40;;;;;;1943020;74;21039;-49
2022/11/15 06:19:12;;;;;;;37.17;18.85;;;5.30;93.50;;;;;;1943127;74;21067;-50
2022/11/15 06:22:00;;;;;;;29.60;18.73;;;5.20;93.90;;;;;;1943024;74;21068;-51
2022/11/15 06:24:47;;;;;;;31.45;19.20;;;5.20;94.50;;;;;;1943124;74;21458;-49
2022/11/15 06:27:35;;;;;;;25.68;15.88;;;5.40;94.50;;;;;;1943337;74;21031;-49
2022/11/15 06:30:22;;;;;;;20.50;13.98;;;5.40;94.00;;;;;;1942987;74;21035;-48
2022/11/15 06:33:09;;;;;;;20.27;12.63;;;5.50;93.90;;;;;;1942965;74;21146;-47
2022/11/15 06:35:56;;;;;;;18.92;12.85;;;5.50;93.10;;;;;;1942854;74;21030;-47
2022/11/15 06:38:44;;;;;;;21.05;14.38;;;5.50;92.70;;;;;;1943165;73;21111;-48
2022/11/15 06:41:31;;;;;;;22.25;14.50;;;5.50;93.60;;;;;;1943029;74;21093;-48
2022/11/15 06:44:18;;;;;;;23.20;14.18;;;5.60;93.30;;;;;;1942692;74;21100;-49
2022/11/15 06:47:05;;;;;;;21.95;15.08;;;5.60;93.70;;;;;;1943120;74;21473;-47
2022/11/15 06:49:53;;;;;;;22.93;15.40;;;5.70;94.00;;;;;;1943129;74;21035;-46
2022/11/15 06:52:40;;;;;;;25.48;16.85;;;5.90;94.10;;;;;;1942926;74;21035;-48
2022/11/15 06:55:27;;;;;;;31.87;14.87;;;6.10;94.30;;;;;;1943064;73;21081;-49
2022/11/15 06:58:14;;;;;;;28.17;16.07;;;6.20;94.10;;;;;;1943120;74;21031;-48
2022/11/15 07:01:09;;;;;;;25.15;15.90;;;6.30;94.10;;;;;;1921293;74;21027;-47
2022/11/15 07:03:57;;;;;;;26.85;16.23;;;6.50;93.80;;;;;;1919778;74;21023;-50
2022/11/15 07:06:45;;;;;;;20.70;14.15;;;6.60;93.90;;;;;;1918799;74;21645;-48
2022/11/15 07:09:33;;;;;;;25.10;15.32;;;6.60;93.40;;;;;;1913686;74;21104;-48
2022/11/15 07:12:20;;;;;;;30.17;14.93;;;6.60;93.60;;;;;;1916173;74;21046;-48
2022/11/15 07:15:08;;;;;;;23.20;15.20;;;6.70;93.60;;;;;;1909050;75;21132;-48
2022/11/15 07:17:55;;;;;;;27.02;14.28;;;6.70;94.00;;;;;;1909380;75;21050;-47
2022/11/15 07:20:42;;;;;;;31.45;14.73;;;6.80;94.00;;;;;;1909362;75;21108;-48
2022/11/15 07:23:29;;;;;;;28.73;15.28;;;7.00;93.50;;;;;;1917468;74;21105;-47
2022/11/15 07:26:16;;;;;;;27.55;15.85;;;7.10;93.90;;;;;;1924645;74;21524;-47
2022/11/15 07:29:03;;;;;;;33.42;16.70;;;7.20;93.90;;;;;;1924592;74;21063;-47
2022/11/15 07:31:51;;;;;;;25.00;15.48;;;7.30;93.60;;;;;;1924699;74;21139;-48
2022/11/15 07:34:38;;;;;;;29.63;16.65;;;7.30;93.20;;;;;;1924587;74;21488;-48
2022/11/15 07:37:25;;;;;;;31.42;16.40;;;7.30;92.20;;;;;;1924216;74;21034;-47
2022/11/15 07:40:13;;;;;;;29.87;17.70;;;7.30;93.30;;;;;;1924658;74;21030;-48
2022/11/15 07:43:09;;;;;;;27.40;14.33;;;7.30;93.40;;;;;;1924631;74;21473;-47
2022/11/15 07:45:56;;;;;;;29.23;15.05;;;7.30;93.20;;;;;;1924598;74;21499;-47
2022/11/15 07:48:43;;;;;;;32.78;17.25;;;7.40;92.80;;;;;;1924525;74;21070;-49
2022/11/15 10:51:06;;;;;;;26.57;14.98;;;7.90;91.70;;;;;;1959049;73;25745;-66
2022/11/15 10:53:38;;;;;;;30.48;15.83;;;7.90;92.10;;;;;;1913961;74;21493;-67
2022/11/15 10:56:09;;;;;;;29.95;13.38;;;8.00;92.00;;;;;;1917763;74;21477;-66
2022/11/15 10:58:43;;;;;;;28.57;17.25;;;8.00;92.00;;;;;;1918413;75;21007;-63
2022/11/15 11:01:18;;;;;;;34.35;17.32;;;8.10;92.00;;;;;;1917629;74;21018;-66
2022/11/15 11:04:01;;;;;;;24.98;13.83;;;8.20;92.10;;;;;;1917629;74;21027;-65
2022/11/15 11:06:31;;;;;;;25.75;15.90;;;8.20;91.50;;;;;;1918136;75;20998;-67
2022/11/15 11:09:05;;;;;;;21.12;12.75;;;8.30;91.60;;;;;;1904443;75;21018;-71
2022/11/15 11:11:51;;;;;;;24.00;13.18;;;8.40;91.20;;;;;;1901429;74;21073;-66
2022/11/15 11:14:31;;;;;;;12.80;8.65;;;8.50;90.80;;;;;;1845971;77;21037;-65
2022/11/15 11:17:14;;;;;;;19.80;11.60;;;8.50;90.10;;;;;;1880621;76;21037;-65
2022/11/15 11:19:52;;;;;;;19.87;9.78;;;8.60;90.00;;;;;;1865955;77;21052;-67
2022/11/15 11:22:27;;;;;;;14.65;7.03;;;8.70;88.10;;;;;;1865842;77;21011;-67
2022/11/15 11:25:01;;;;;;;19.82;11.48;;;8.80;90.50;;;;;;1865471;77;21144;-69
2022/11/15 11:27:39;;;;;;;10.30;6.47;;;9.00;90.10;;;;;;1865384;77;21137;-67
2022/11/15 11:30:16;;;;;;;12.00;6.92;;;9.10;88.30;;;;;;1865470;77;21583;-70
2022/11/15 11:33:05;;;;;;;8.48;5.42;;;9.10;88.90;;;;;;1852694;77;21122;-71
2022/11/15 11:35:49;;;;;;;11.08;5.60;;;9.20;87.10;;;;;;1865453;77;21035;-68
2022/11/15 11:38:32;;;;;;;11.30;7.08;;;9.20;84.60;;;;;;1865622;77;21101;-71
2022/11/15 11:41:13;;;;;;;7.25;5.60;;;9.20;87.30;;;;;;1864551;77;21078;-71
2022/11/15 11:43:54;;;;;;;10.45;5.90;;;9.20;84.90;;;;;;1864704;77;21123;-71
2022/11/15 11:46:35;;;;;;;9.85;6.40;;;9.20;83.30;;;;;;1864133;77;21201;-48
2022/11/15 11:49:19;;;;;;;13.43;7.97;;;9.20;83.70;;;;;;1863350;77;21639;-49
2022/11/15 11:51:56;;;;;;;17.07;8.65;;;9.20;85.10;;;;;;1832851;77;21131;-49
2022/11/15 11:54:28;;;;;;;19.27;11.55;;;9.20;84.50;;;;;;1864647;77;21156;-48
2022/11/15 11:56:59;;;;;;;28.42;13.95;;;9.20;82.20;;;;;;1862500;77;21063;-49
2022/11/15 11:59:33;;;;;;;23.67;12.53;;;9.20;84.20;;;;;;1865798;77;21000;-46
2022/11/15 12:02:20;;;;;;;18.30;10.35;;;9.20;84.10;;;;;;1803761;77;21109;-49
2022/11/15 12:04:52;;;;;;;17.57;9.38;;;9.20;83.20;;;;;;1865442;77;21097;-47
2022/11/15 12:07:30;;;;;;;18.37;11.03;;;9.30;85.40;;;;;;1865370;77;21514;-50
2022/11/15 12:10:02;;;;;;;24.02;13.55;;;9.30;83.60;;;;;;1865329;77;21035;-49
2022/11/15 12:12:52;;;;;;;23.98;13.43;;;9.30;81.90;;;;;;1865121;77;21493;-48
2022/11/15 12:15:29;;;;;;;28.35;14.83;;;9.30;82.70;;;;;;1865219;77;21035;-48
2022/11/15 12:18:00;;;;;;;21.23;11.78;;;9.30;83.30;;;;;;1865226;77;21874;-51
2022/11/15 12:20:32;;;;;;;23.75;11.88;;;9.30;82.40;;;;;;1865136;77;21039;-51
2022/11/15 12:23:09;;;;;;;27.00;16.62;;;9.30;81.60;;;;;;1864440;77;21489;-48
2022/11/15 12:25:44;;;;;;;15.25;7.72;;;9.30;81.10;;;;;;1864810;77;21059;-48
2022/11/15 12:28:22;;;;;;;14.98;8.43;;;9.30;82.60;;;;;;1865496;77;21067;-47
2022/11/15 12:30:56;;;;;;;17.50;8.23;;;9.20;81.20;;;;;;1824343;77;21474;-48
2022/11/15 12:33:46;;;;;;;21.97;9.28;;;9.20;81.30;;;;;;1863908;77;21086;-47
2022/11/15 12:36:30;;;;;;;34.08;14.05;;;9.20;81.00;;;;;;1865203;77;21071;-47
2022/11/15 12:39:04;;;;;;;31.20;15.32;;;9.20;81.80;;;;;;1865226;77;21051;-48
2022/11/15 12:41:35;;;;;;;33.42;17.30;;;9.20;81.00;;;;;;1865438;77;21018;-48
2022/11/15 12:44:07;;;;;;;28.60;15.05;;;9.20;82.60;;;;;;1865199;77;21019;-47
2022/11/15 12:46:45;;;;;;;22.80;10.95;;;9.20;82.20;;;;;;1864897;77;21505;-47
2022/11/15 12:49:25;;;;;;;12.15;7.60;;;9.10;82.70;;;;;;1865198;77;21097;-47
2022/11/15 12:52:03;;;;;;;34.63;15.90;;;9.10;81.90;;;;;;1862737;77;21591;-47
2022/11/15 12:54:41;;;;;;;30.62;15.60;;;9.10;81.50;;;;;;1927519;74;21050;-48
2022/11/15 12:57:18;;;;;;;35.95;16.05;;;9.10;81.10;;;;;;1927426;74;21084;-47
2022/11/15 13:00:15;;;;;;;34.15;16.20;;;9.10;82.40;;;;;;1927524;74;21039;-49
2022/11/15 13:02:45;;;;;;;31.23;14.70;;;9.10;81.30;;;;;;1927581;74;21031;-47
2022/11/15 13:05:20;;;;;;;42.65;21.27;;;9.00;81.20;;;;;;1927528;74;21002;-47
2022/11/15 13:07:51;;;;;;;34.73;17.40;;;9.00;81.80;;;;;;1927628;74;20979;-48
2022/11/15 13:10:32;;;;;;;25.20;14.40;;;9.00;80.90;;;;;;1927505;74;21015;-48
2022/11/15 13:13:07;;;;;;;25.92;13.80;;;8.90;81.60;;;;;;1927540;73;21018;-48
2022/11/15 13:15:48;;;;;;;30.45;16.23;;;8.90;81.40;;;;;;1927292;74;21449;-50
2022/11/15 13:18:34;;;;;;;28.07;13.45;;;8.90;82.70;;;;;;1926924;74;21011;-48
2022/11/15 13:22:50;;;;;;;26.70;12.05;;;8.80;82.70;;;;;;1927416;74;21070;-51
2022/11/15 13:23:36;;;;;;;17.75;10.43;;;8.80;82.30;;;;;;1924395;74;21046;-49
2022/11/15 13:26:11;;;;;;;18.60;9.35;;;8.80;82.60;;;;;;1927523;74;21023;-48
2022/11/15 13:28:45;;;;;;;18.98;10.63;;;8.70;81.80;;;;;;1927783;74;21015;-48
2022/11/15 13:31:20;;;;;;;82.72;37.65;;;8.70;83.00;;;;;;1927694;74;21848;-48
2022/11/15 13:33:49;;;;;;;114.62;53.98;;;8.70;82.60;;;;;;1927332;74;21031;-47
2022/11/15 13:36:24;;;;;;;40.38;21.15;;;8.60;82.10;;;;;;1927457;74;21030;-50
2022/11/15 13:39:01;;;;;;;34.18;21.62;;;8.60;81.90;;;;;;1927780;74;21461;-50
2022/11/15 13:41:33;;;;;;;28.92;17.35;;;8.50;83.00;;;;;;1927514;74;21427;-48
2022/11/15 13:44:04;;;;;;;151.42;59.75;;;8.50;83.00;;;;;;1927592;74;20998;-49
2022/11/15 13:46:34;;;;;;;160.82;66.82;;;8.40;82.70;;;;;;1927493;74;20999;-47
2022/11/15 13:49:05;;;;;;;730.83;332.70;;;8.40;83.70;;;;;;1927604;74;21022;-50
2022/11/15 13:51:38;;;;;;;517.40;211.45;;;8.40;83.90;;;;;;1929310;74;21046;-49
2022/11/15 13:54:34;;;;;;;413.45;170.72;;;8.40;84.10;;;;;;1924641;74;21048;-47
2022/11/15 13:57:11;;;;;;;408.12;175.57;;;8.30;83.40;;;;;;1924563;74;21026;-47
2022/11/15 13:59:49;;;;;;;336.23;145.12;;;8.30;84.80;;;;;;1924806;74;20998;-50
2022/11/15 14:02:22;;;;;;;126.05;61.23;;;8.30;86.00;;;;;;1924617;74;21047;-48
2022/11/15 14:04:54;;;;;;;84.35;41.35;;;8.20;85.60;;;;;;1924527;74;21014;-58
2022/11/15 14:07:26;;;;;;;52.50;26.05;;;8.20;86.10;;;;;;1923654;74;21019;-57
2022/11/15 14:09:55;;;;;;;88.90;39.98;;;8.40;89.40;;;;;;1924733;74;21525;-58
2022/11/15 14:12:29;;;;;;;75.47;32.58;;;8.60;90.20;;;;;;1924506;74;20999;-59
2022/11/15 14:15:00;;;;;;;73.17;32.78;;;8.90;88.40;;;;;;1924814;74;20998;-57
2022/11/15 14:17:35;;;;;;;85.85;34.78;;;9.00;89.20;;;;;;1923826;74;21031;-58
2022/11/15 14:20:06;;;;;;;56.48;28.57;;;8.90;88.30;;;;;;1924767;74;20987;-58
2022/11/15 14:22:36;;;;;;;61.92;29.92;;;8.80;87.10;;;;;;1922581;74;21469;-57
2022/11/15 14:25:18;;;;;;;49.80;25.25;;;8.70;88.30;;;;;;1924639;74;21508;-57
2022/11/15 14:28:25;;;;;;;48.08;25.92;;;8.60;88.00;;;;;;1924598;74;21022;-57
2022/11/15 14:30:56;;;;;;;47.65;23.20;;;8.50;88.50;;;;;;1924497;74;20987;-58
2022/11/15 14:33:34;;;;;;;65.85;28.27;;;8.60;91.40;;;;;;1924623;74;21077;-58
2022/11/15 14:36:15;;;;;;;71.47;32.90;;;8.80;91.70;;;;;;1924569;74;21050;-58
2022/11/15 14:38:45;;;;;;;64.10;33.08;;;9.00;90.90;;;;;;1924498;74;21084;-58
2022/11/15 14:41:26;;;;;;;82.67;37.48;;;9.00;90.20;;;;;;1924627;74;21081;-59
2022/11/15 14:43:55;;;;;;;84.30;37.60;;;8.90;90.10;;;;;;1924627;74;21163;-59
2022/11/15 14:46:24;;;;;;;109.75;47.88;;;8.80;90.00;;;;;;1924569;74;21018;-59
2022/11/15 14:48:53;;;;;;;89.70;41.08;;;8.70;90.10;;;;;;1923971;74;21030;-58
2022/11/15 14:51:23;;;;;;;72.58;33.60;;;8.60;89.60;;;;;;1919607;74;21115;-58
2022/11/15 14:53:52;;;;;;;100.00;42.33;;;8.50;90.00;;;;;;1905234;75;21003;-58
2022/11/15 14:56:22;;;;;;;105.43;44.90;;;8.40;90.20;;;;;;1904731;74;21054;-58
2022/11/15 14:58:50;;;;;;;111.80;42.48;;;8.40;90.30;;;;;;1904879;74;21015;-58
2022/11/15 15:01:26;;;;;;;112.15;44.40;;;8.30;90.20;;;;;;1905173;75;21043;-58
2022/11/15 15:03:58;;;;;;;114.85;43.85;;;8.30;90.30;;;;;;1905310;75;21043;-59
2022/11/15 15:06:27;;;;;;;88.65;35.13;;;8.30;90.50;;;;;;1905265;74;21032;-58
2022/11/15 15:08:56;;;;;;;74.65;31.27;;;8.30;90.50;;;;;;1905190;75;21066;-57
2022/11/15 15:11:28;;;;;;;75.85;35.38;;;8.20;90.40;;;;;;1905239;75;21019;-59
2022/11/15 15:14:00;;;;;;;87.92;36.45;;;8.20;90.30;;;;;;1905266;75;21560;-58
2022/11/15 15:16:28;;;;;;;89.67;39.90;;;8.10;90.50;;;;;;1905188;75;21130;-57
2022/11/15 15:18:57;;;;;;;75.80;35.65;;;8.10;90.50;;;;;;1905154;75;21015;-58
2022/11/15 15:21:28;;;;;;;72.65;34.75;;;8.10;90.30;;;;;;1905119;75;21136;-57
2022/11/15 15:23:57;;;;;;;75.17;35.20;;;8.00;90.40;;;;;;1905156;75;21089;-58
2022/11/15 15:26:26;;;;;;;68.52;31.97;;;8.00;90.60;;;;;;1905118;75;21125;-57
2022/11/15 15:28:55;;;;;;;80.45;34.92;;;7.90;90.50;;;;;;1905147;75;21024;-57
2022/11/15 15:31:24;;;;;;;69.58;32.80;;;8.00;90.70;;;;;;1905212;74;21447;-57
2022/11/15 15:33:54;;;;;;;65.75;31.05;;;8.00;90.90;;;;;;1905163;74;21011;-57
2022/11/15 15:36:23;;;;;;;61.80;31.05;;;7.90;90.90;;;;;;1905149;75;21019;-58
2022/11/15 15:38:52;;;;;;;62.25;30.10;;;8.00;91.10;;;;;;1905345;75;21018;-57
2022/11/15 15:41:22;;;;;;;67.95;31.85;;;8.00;91.10;;;;;;1905236;75;21011;-56
2022/11/15 15:43:51;;;;;;;59.58;30.72;;;8.00;91.10;;;;;;1905408;74;21019;-57
2022/11/15 15:46:21;;;;;;;54.80;29.10;;;7.90;91.10;;;;;;1905259;74;21019;-57
2022/11/15 15:48:50;;;;;;;64.77;28.67;;;7.90;91.20;;;;;;1905285;74;21105;-57
2022/11/15 15:51:19;;;;;;;64.45;29.72;;;7.90;91.30;;;;;;1905248;75;21093;-57
2022/11/15 15:53:50;;;;;;;53.33;25.37;;;7.80;91.30;;;;;;1923498;74;21104;-57
2022/11/15 15:56:19;;;;;;;96.67;35.50;;;7.80;91.30;;;;;;1924706;74;21441;-57
2022/11/15 15:58:48;;;;;;;65.03;28.32;;;7.80;91.40;;;;;;1924772;74;21018;-58
2022/11/15 16:01:18;;;;;;;64.45;30.55;;;7.80;91.40;;;;;;1924602;74;21096;-58
2022/11/15 16:03:47;;;;;;;65.05;32.28;;;7.80;91.60;;;;;;1924648;74;21129;-57
2022/11/15 16:06:37;;;;;;;90.03;33.92;;;7.80;91.60;;;;;;1924513;74;21787;-57
2022/11/15 16:09:07;;;;;;;70.87;30.85;;;7.80;91.50;;;;;;1900109;74;21135;-57
2022/11/15 16:11:36;;;;;;;83.92;32.95;;;7.70;91.50;;;;;;1924704;74;21061;-56
2022/11/15 16:14:05;;;;;;;62.08;29.55;;;7.70;91.60;;;;;;1919580;74;21125;-57
2022/11/15 16:16:35;;;;;;;70.95;27.90;;;7.70;91.70;;;;;;1891489;76;21028;-57
2022/11/15 16:19:05;;;;;;;43.42;22.87;;;7.70;91.80;;;;;;1891637;76;21087;-58
2022/11/15 16:21:34;;;;;;;49.73;22.67;;;7.70;91.80;;;;;;1891592;76;21016;-57
2022/11/15 16:24:04;;;;;;;66.33;25.48;;;7.70;91.80;;;;;;1891586;76;21089;-57
2022/11/15 16:26:35;;;;;;;56.23;22.42;;;7.60;91.80;;;;;;1891570;76;21027;-57
2022/11/15 16:29:06;;;;;;;73.33;24.50;;;7.60;91.90;;;;;;1891636;76;21051;-57
2022/11/15 16:31:35;;;;;;;59.33;23.98;;;7.60;92.10;;;;;;1891767;76;21071;-57
2022/11/15 16:34:04;;;;;;;71.57;24.90;;;7.70;92.00;;;;;;1891629;76;21040;-57
2022/11/15 16:36:35;;;;;;;62.45;23.73;;;7.60;91.90;;;;;;1891628;76;21008;-56
2022/11/15 16:39:04;;;;;;;125.15;28.65;;;7.60;92.00;;;;;;1891740;76;21149;-55
2022/11/15 16:41:33;;;;;;;74.58;27.55;;;7.60;92.30;;;;;;1891050;76;21168;-54
2022/11/15 16:44:02;;;;;;;77.80;25.62;;;7.70;92.80;;;;;;1890110;76;21095;-55
2022/11/15 16:46:32;;;;;;;67.92;25.27;;;7.80;92.40;;;;;;1891369;76;21009;-55
2022/11/15 16:49:01;;;;;;;61.80;27.35;;;7.80;92.20;;;;;;1891529;76;21083;-55
2022/11/15 16:51:30;;;;;;;50.33;25.27;;;7.70;92.20;;;;;;1891547;76;21036;-54
2022/11/15 16:53:59;;;;;;;52.33;22.07;;;7.70;92.20;;;;;;1891652;76;21129;-55
2022/11/15 16:56:30;;;;;;;51.85;22.22;;;7.60;92.20;;;;;;1891535;76;21033;-55
2022/11/15 16:59:00;;;;;;;52.05;23.00;;;7.50;92.20;;;;;;1891647;76;21114;-53
2022/11/15 17:01:32;;;;;;;38.40;21.70;;;7.40;92.20;;;;;;1891516;76;21028;-55
2022/11/15 17:04:11;;;;;;;56.30;21.68;;;7.30;92.20;;;;;;1891527;76;21000;-54